sensor_id;sensor_type;location;lat;lon;timestamp;P1;durP1;ratioP1;P2;durP2;ratioP2
26113;SDS011;13966;48.828;9.064;2023-05-07T00:00:10;9.57;;;4.82;;
26113;SDS011;13966;48.828;9.064;2023-05-07T00:02:36;6.63;;;3.83;;
26113;SDS011;13966;48.828;9.064;2023-05-07T00:05:02;8.45;;;4.32;;
26113;SDS011;13966;48.828;9.064;2023-05-07T00:07:29;5.65;;;3.78;;
26113;SDS011;13966;48.828;9.064;2023-05-07T00:09:55;6.10;;;3.95;;
26113;SDS011;13966;48.828;9.064;2023-05-07T00:12:21;7.40;;;4.68;;
26113;SDS011;13966;48.828;9.064;2023-05-07T00:14:47;11.32;;;4.65;;
26113;SDS011;13966;48.828;9.064;2023-05-07T00:17:13;6.60;;;4.50;;
26113;SDS011;13966;48.828;9.064;2023-05-07T00:19:39;6.90;;;4.25;;
26113;SDS011;13966;48.828;9.064;2023-05-07T00:22:05;8.65;;;4.68;;
26113;SDS011;13966;48.828;9.064;2023-05-07T00:24:31;9.77;;;4.57;;
26113;SDS011;13966;48.828;9.064;2023-05-07T00:26:57;5.15;;;3.92;;
26113;SDS011;13966;48.828;9.064;2023-05-07T00:29:23;6.47;;;4.03;;
26113;SDS011;13966;48.828;9.064;2023-05-07T00:31:49;7.75;;;3.97;;
26113;SDS011;13966;48.828;9.064;2023-05-07T00:34:15;8.93;;;4.55;;
26113;SDS011;13966;48.828;9.064;2023-05-07T00:36:41;6.75;;;3.67;;
26113;SDS011;13966;48.828;9.064;2023-05-07T00:39:08;6.65;;;4.15;;
26113;SDS011;13966;48.828;9.064;2023-05-07T00:41:34;7.85;;;3.80;;
26113;SDS011;13966;48.828;9.064;2023-05-07T00:44:00;5.80;;;4.22;;
26113;SDS011;13966;48.828;9.064;2023-05-07T00:46:27;8.35;;;4.22;;
26113;SDS011;13966;48.828;9.064;2023-05-07T00:48:53;8.27;;;4.43;;
26113;SDS011;13966;48.828;9.064;2023-05-07T00:51:19;5.28;;;4.05;;
26113;SDS011;13966;48.828;9.064;2023-05-07T00:53:45;6.70;;;4.13;;
26113;SDS011;13966;48.828;9.064;2023-05-07T00:56:12;10.93;;;4.80;;
26113;SDS011;13966;48.828;9.064;2023-05-07T00:58:38;5.47;;;4.22;;
26113;SDS011;13966;48.828;9.064;2023-05-07T01:01:04;7.70;;;3.90;;
26113;SDS011;13966;48.828;9.064;2023-05-07T01:03:30;11.88;;;5.10;;
26113;SDS011;13966;48.828;9.064;2023-05-07T01:05:56;8.20;;;4.30;;
26113;SDS011;13966;48.828;9.064;2023-05-07T01:08:23;9.65;;;4.07;;
26113;SDS011;13966;48.828;9.064;2023-05-07T01:10:51;10.60;;;5.03;;
26113;SDS011;13966;48.828;9.064;2023-05-07T01:13:17;8.13;;;4.10;;
26113;SDS011;13966;48.828;9.064;2023-05-07T01:15:44;6.10;;;4.40;;
26113;SDS011;13966;48.828;9.064;2023-05-07T01:18:10;6.10;;;4.22;;
26113;SDS011;13966;48.828;9.064;2023-05-07T01:20:36;5.95;;;4.13;;
26113;SDS011;13966;48.828;9.064;2023-05-07T01:23:02;6.65;;;4.50;;
26113;SDS011;13966;48.828;9.064;2023-05-07T01:25:28;7.07;;;4.43;;
26113;SDS011;13966;48.828;9.064;2023-05-07T01:27:55;7.35;;;4.43;;
26113;SDS011;13966;48.828;9.064;2023-05-07T01:30:21;7.03;;;4.32;;
26113;SDS011;13966;48.828;9.064;2023-05-07T01:32:49;5.40;;;3.95;;
26113;SDS011;13966;48.828;9.064;2023-05-07T01:35:18;8.75;;;4.32;;
26113;SDS011;13966;48.828;9.064;2023-05-07T01:37:48;7.47;;;4.80;;
26113;SDS011;13966;48.828;9.064;2023-05-07T01:40:14;7.20;;;4.38;;
26113;SDS011;13966;48.828;9.064;2023-05-07T01:42:41;8.80;;;5.00;;
26113;SDS011;13966;48.828;9.064;2023-05-07T01:45:07;8.38;;;4.53;;
26113;SDS011;13966;48.828;9.064;2023-05-07T01:47:33;7.85;;;4.68;;
26113;SDS011;13966;48.828;9.064;2023-05-07T01:50:00;7.43;;;4.55;;
26113;SDS011;13966;48.828;9.064;2023-05-07T01:52:27;4.88;;;3.83;;
26113;SDS011;13966;48.828;9.064;2023-05-07T01:54:53;11.45;;;3.88;;
26113;SDS011;13966;48.828;9.064;2023-05-07T01:57:19;6.38;;;4.45;;
26113;SDS011;13966;48.828;9.064;2023-05-07T01:59:45;4.57;;;3.90;;
26113;SDS011;13966;48.828;9.064;2023-05-07T02:02:11;7.68;;;4.93;;
26113;SDS011;13966;48.828;9.064;2023-05-07T02:04:37;8.23;;;4.35;;
26113;SDS011;13966;48.828;9.064;2023-05-07T02:07:03;5.22;;;4.05;;
26113;SDS011;13966;48.828;9.064;2023-05-07T02:09:29;6.10;;;4.40;;
26113;SDS011;13966;48.828;9.064;2023-05-07T02:11:55;5.50;;;4.38;;
26113;SDS011;13966;48.828;9.064;2023-05-07T02:14:21;5.13;;;4.00;;
26113;SDS011;13966;48.828;9.064;2023-05-07T02:16:47;6.32;;;4.57;;
26113;SDS011;13966;48.828;9.064;2023-05-07T02:19:13;8.55;;;4.00;;
26113;SDS011;13966;48.828;9.064;2023-05-07T02:21:40;8.48;;;4.00;;
26113;SDS011;13966;48.828;9.064;2023-05-07T02:24:06;5.93;;;4.05;;
26113;SDS011;13966;48.828;9.064;2023-05-07T02:26:32;10.20;;;4.38;;
26113;SDS011;13966;48.828;9.064;2023-05-07T02:28:59;6.90;;;4.38;;
26113;SDS011;13966;48.828;9.064;2023-05-07T02:31:25;6.20;;;4.45;;
26113;SDS011;13966;48.828;9.064;2023-05-07T02:33:51;8.55;;;4.20;;
26113;SDS011;13966;48.828;9.064;2023-05-07T02:36:17;9.88;;;4.10;;
26113;SDS011;13966;48.828;9.064;2023-05-07T02:38:43;6.32;;;4.00;;
26113;SDS011;13966;48.828;9.064;2023-05-07T02:41:09;7.93;;;4.35;;
26113;SDS011;13966;48.828;9.064;2023-05-07T02:43:35;4.22;;;3.67;;
26113;SDS011;13966;48.828;9.064;2023-05-07T02:46:06;9.18;;;4.03;;
26113;SDS011;13966;48.828;9.064;2023-05-07T02:48:32;4.82;;;4.03;;
26113;SDS011;13966;48.828;9.064;2023-05-07T02:50:58;9.90;;;4.18;;
26113;SDS011;13966;48.828;9.064;2023-05-07T02:53:25;7.38;;;4.00;;
26113;SDS011;13966;48.828;9.064;2023-05-07T02:55:52;6.90;;;4.00;;
26113;SDS011;13966;48.828;9.064;2023-05-07T02:58:18;5.32;;;3.85;;
26113;SDS011;13966;48.828;9.064;2023-05-07T03:00:44;7.70;;;3.88;;
26113;SDS011;13966;48.828;9.064;2023-05-07T03:03:10;6.20;;;3.65;;
26113;SDS011;13966;48.828;9.064;2023-05-07T03:05:36;5.40;;;3.55;;
26113;SDS011;13966;48.828;9.064;2023-05-07T03:08:02;4.72;;;3.53;;
26113;SDS011;13966;48.828;9.064;2023-05-07T03:10:29;6.70;;;4.07;;
26113;SDS011;13966;48.828;9.064;2023-05-07T03:12:55;5.25;;;4.15;;
26113;SDS011;13966;48.828;9.064;2023-05-07T03:15:21;4.80;;;4.05;;
26113;SDS011;13966;48.828;9.064;2023-05-07T03:17:47;6.40;;;4.45;;
26113;SDS011;13966;48.828;9.064;2023-05-07T03:20:13;6.35;;;3.92;;
26113;SDS011;13966;48.828;9.064;2023-05-07T03:22:39;8.50;;;4.28;;
26113;SDS011;13966;48.828;9.064;2023-05-07T03:25:06;8.02;;;3.78;;
26113;SDS011;13966;48.828;9.064;2023-05-07T03:27:32;8.13;;;4.28;;
26113;SDS011;13966;48.828;9.064;2023-05-07T03:29:58;7.22;;;3.90;;
26113;SDS011;13966;48.828;9.064;2023-05-07T03:32:24;5.53;;;4.32;;
26113;SDS011;13966;48.828;9.064;2023-05-07T03:34:50;4.82;;;3.70;;
26113;SDS011;13966;48.828;9.064;2023-05-07T03:37:17;5.70;;;4.18;;
26113;SDS011;13966;48.828;9.064;2023-05-07T03:39:42;11.48;;;4.22;;
26113;SDS011;13966;48.828;9.064;2023-05-07T03:42:08;8.93;;;4.45;;
26113;SDS011;13966;48.828;9.064;2023-05-07T03:44:34;8.88;;;3.78;;
26113;SDS011;13966;48.828;9.064;2023-05-07T03:47:01;4.50;;;3.88;;
26113;SDS011;13966;48.828;9.064;2023-05-07T03:49:27;6.53;;;4.20;;
26113;SDS011;13966;48.828;9.064;2023-05-07T03:51:53;5.03;;;4.10;;
26113;SDS011;13966;48.828;9.064;2023-05-07T03:54:20;5.70;;;3.90;;
26113;SDS011;13966;48.828;9.064;2023-05-07T03:56:46;4.43;;;3.65;;
26113;SDS011;13966;48.828;9.064;2023-05-07T03:59:12;6.45;;;4.20;;
26113;SDS011;13966;48.828;9.064;2023-05-07T04:01:38;5.50;;;3.83;;
26113;SDS011;13966;48.828;9.064;2023-05-07T04:04:04;6.43;;;3.85;;
26113;SDS011;13966;48.828;9.064;2023-05-07T04:06:31;5.60;;;3.97;;
26113;SDS011;13966;48.828;9.064;2023-05-07T04:08:57;7.47;;;4.15;;
26113;SDS011;13966;48.828;9.064;2023-05-07T04:11:23;5.55;;;4.25;;
26113;SDS011;13966;48.828;9.064;2023-05-07T04:13:50;6.45;;;4.18;;
26113;SDS011;13966;48.828;9.064;2023-05-07T04:16:15;5.07;;;3.90;;
26113;SDS011;13966;48.828;9.064;2023-05-07T04:18:41;7.32;;;4.15;;
26113;SDS011;13966;48.828;9.064;2023-05-07T04:21:20;6.85;;;4.22;;
26113;SDS011;13966;48.828;9.064;2023-05-07T04:23:46;8.05;;;4.30;;
26113;SDS011;13966;48.828;9.064;2023-05-07T04:26:13;5.45;;;4.32;;
26113;SDS011;13966;48.828;9.064;2023-05-07T04:28:39;8.02;;;4.28;;
26113;SDS011;13966;48.828;9.064;2023-05-07T04:31:05;7.53;;;4.47;;
26113;SDS011;13966;48.828;9.064;2023-05-07T04:33:31;7.57;;;4.50;;
26113;SDS011;13966;48.828;9.064;2023-05-07T04:35:58;5.90;;;4.07;;
26113;SDS011;13966;48.828;9.064;2023-05-07T04:38:27;6.60;;;4.15;;
26113;SDS011;13966;48.828;9.064;2023-05-07T04:40:53;7.72;;;4.10;;
26113;SDS011;13966;48.828;9.064;2023-05-07T04:43:19;6.25;;;4.40;;
26113;SDS011;13966;48.828;9.064;2023-05-07T04:45:46;8.43;;;4.00;;
26113;SDS011;13966;48.828;9.064;2023-05-07T04:48:14;6.43;;;3.67;;
26113;SDS011;13966;48.828;9.064;2023-05-07T04:50:40;5.10;;;3.95;;
26113;SDS011;13966;48.828;9.064;2023-05-07T04:53:06;6.10;;;3.80;;
26113;SDS011;13966;48.828;9.064;2023-05-07T04:55:32;6.43;;;4.03;;
26113;SDS011;13966;48.828;9.064;2023-05-07T04:57:58;5.72;;;4.10;;
26113;SDS011;13966;48.828;9.064;2023-05-07T05:00:26;5.18;;;3.88;;
26113;SDS011;13966;48.828;9.064;2023-05-07T05:02:52;8.52;;;4.30;;
26113;SDS011;13966;48.828;9.064;2023-05-07T05:05:18;4.88;;;3.67;;
26113;SDS011;13966;48.828;9.064;2023-05-07T05:07:44;5.65;;;3.78;;
26113;SDS011;13966;48.828;9.064;2023-05-07T05:10:10;8.85;;;3.92;;
26113;SDS011;13966;48.828;9.064;2023-05-07T05:12:36;4.18;;;3.47;;
26113;SDS011;13966;48.828;9.064;2023-05-07T05:15:03;6.25;;;4.10;;
26113;SDS011;13966;48.828;9.064;2023-05-07T05:17:29;6.22;;;4.00;;
26113;SDS011;13966;48.828;9.064;2023-05-07T05:19:55;5.28;;;3.97;;
26113;SDS011;13966;48.828;9.064;2023-05-07T05:22:21;6.90;;;4.00;;
26113;SDS011;13966;48.828;9.064;2023-05-07T05:24:47;4.20;;;3.80;;
26113;SDS011;13966;48.828;9.064;2023-05-07T05:27:13;6.20;;;3.78;;
26113;SDS011;13966;48.828;9.064;2023-05-07T05:29:39;5.38;;;3.92;;
26113;SDS011;13966;48.828;9.064;2023-05-07T05:32:05;5.35;;;4.20;;
26113;SDS011;13966;48.828;9.064;2023-05-07T05:34:31;7.32;;;4.10;;
26113;SDS011;13966;48.828;9.064;2023-05-07T05:36:58;5.53;;;3.78;;
26113;SDS011;13966;48.828;9.064;2023-05-07T05:39:24;10.63;;;3.90;;
26113;SDS011;13966;48.828;9.064;2023-05-07T05:41:50;6.05;;;3.95;;
26113;SDS011;13966;48.828;9.064;2023-05-07T05:44:16;5.68;;;4.03;;
26113;SDS011;13966;48.828;9.064;2023-05-07T05:46:42;5.93;;;3.92;;
26113;SDS011;13966;48.828;9.064;2023-05-07T05:49:08;5.40;;;3.90;;
26113;SDS011;13966;48.828;9.064;2023-05-07T05:51:34;7.43;;;4.05;;
26113;SDS011;13966;48.828;9.064;2023-05-07T05:54:00;5.55;;;4.07;;
26113;SDS011;13966;48.828;9.064;2023-05-07T05:56:26;5.80;;;4.50;;
26113;SDS011;13966;48.828;9.064;2023-05-07T05:58:52;5.32;;;3.83;;
26113;SDS011;13966;48.828;9.064;2023-05-07T06:01:18;5.55;;;3.60;;
26113;SDS011;13966;48.828;9.064;2023-05-07T06:03:44;5.22;;;3.75;;
26113;SDS011;13966;48.828;9.064;2023-05-07T06:06:10;5.80;;;3.90;;
26113;SDS011;13966;48.828;9.064;2023-05-07T06:08:36;6.35;;;4.00;;
26113;SDS011;13966;48.828;9.064;2023-05-07T06:11:02;7.45;;;4.15;;
26113;SDS011;13966;48.828;9.064;2023-05-07T06:13:28;7.68;;;4.35;;
26113;SDS011;13966;48.828;9.064;2023-05-07T06:15:54;5.03;;;3.90;;
26113;SDS011;13966;48.828;9.064;2023-05-07T06:18:20;4.53;;;3.92;;
26113;SDS011;13966;48.828;9.064;2023-05-07T06:20:46;4.80;;;4.28;;
26113;SDS011;13966;48.828;9.064;2023-05-07T06:23:12;6.05;;;4.22;;
26113;SDS011;13966;48.828;9.064;2023-05-07T06:25:39;8.25;;;4.03;;
26113;SDS011;13966;48.828;9.064;2023-05-07T06:28:05;5.95;;;4.30;;
26113;SDS011;13966;48.828;9.064;2023-05-07T06:30:33;4.93;;;4.20;;
26113;SDS011;13966;48.828;9.064;2023-05-07T06:32:59;8.43;;;4.60;;
26113;SDS011;13966;48.828;9.064;2023-05-07T06:35:25;9.63;;;4.90;;
26113;SDS011;13966;48.828;9.064;2023-05-07T06:37:51;6.13;;;5.10;;
26113;SDS011;13966;48.828;9.064;2023-05-07T06:40:17;6.88;;;4.60;;
26113;SDS011;13966;48.828;9.064;2023-05-07T06:42:43;8.77;;;4.85;;
26113;SDS011;13966;48.828;9.064;2023-05-07T06:45:09;8.30;;;4.85;;
26113;SDS011;13966;48.828;9.064;2023-05-07T06:47:35;9.00;;;4.90;;
26113;SDS011;13966;48.828;9.064;2023-05-07T06:50:01;6.57;;;4.70;;
26113;SDS011;13966;48.828;9.064;2023-05-07T06:52:27;7.13;;;4.80;;
26113;SDS011;13966;48.828;9.064;2023-05-07T06:54:53;10.27;;;5.22;;
26113;SDS011;13966;48.828;9.064;2023-05-07T06:57:19;7.95;;;4.95;;
26113;SDS011;13966;48.828;9.064;2023-05-07T06:59:45;6.82;;;5.30;;
26113;SDS011;13966;48.828;9.064;2023-05-07T07:02:11;7.18;;;4.78;;
26113;SDS011;13966;48.828;9.064;2023-05-07T07:04:37;8.30;;;4.93;;
26113;SDS011;13966;48.828;9.064;2023-05-07T07:07:03;5.90;;;4.82;;
26113;SDS011;13966;48.828;9.064;2023-05-07T07:09:29;6.90;;;4.70;;
26113;SDS011;13966;48.828;9.064;2023-05-07T07:11:55;5.85;;;4.57;;
26113;SDS011;13966;48.828;9.064;2023-05-07T07:14:21;8.65;;;4.47;;
26113;SDS011;13966;48.828;9.064;2023-05-07T07:16:47;9.60;;;4.93;;
26113;SDS011;13966;48.828;9.064;2023-05-07T07:19:13;6.20;;;4.55;;
26113;SDS011;13966;48.828;9.064;2023-05-07T07:21:40;12.70;;;4.93;;
26113;SDS011;13966;48.828;9.064;2023-05-07T07:24:06;7.85;;;4.68;;
26113;SDS011;13966;48.828;9.064;2023-05-07T07:26:32;6.80;;;3.75;;
26113;SDS011;13966;48.828;9.064;2023-05-07T07:28:58;7.15;;;4.68;;
26113;SDS011;13966;48.828;9.064;2023-05-07T07:31:24;6.28;;;4.30;;
26113;SDS011;13966;48.828;9.064;2023-05-07T07:33:50;5.20;;;3.65;;
26113;SDS011;13966;48.828;9.064;2023-05-07T07:36:16;5.82;;;4.22;;
26113;SDS011;13966;48.828;9.064;2023-05-07T07:38:42;5.75;;;3.60;;
26113;SDS011;13966;48.828;9.064;2023-05-07T07:41:08;5.75;;;3.60;;
26113;SDS011;13966;48.828;9.064;2023-05-07T07:43:34;6.07;;;3.40;;
26113;SDS011;13966;48.828;9.064;2023-05-07T07:46:00;6.40;;;3.75;;
26113;SDS011;13966;48.828;9.064;2023-05-07T07:48:26;6.70;;;3.63;;
26113;SDS011;13966;48.828;9.064;2023-05-07T07:50:52;7.55;;;3.70;;
26113;SDS011;13966;48.828;9.064;2023-05-07T07:53:18;4.13;;;3.10;;
26113;SDS011;13966;48.828;9.064;2023-05-07T07:55:44;8.88;;;3.15;;
26113;SDS011;13966;48.828;9.064;2023-05-07T07:58:10;5.45;;;3.03;;
26113;SDS011;13966;48.828;9.064;2023-05-07T08:00:36;5.85;;;3.55;;
26113;SDS011;13966;48.828;9.064;2023-05-07T08:03:02;4.45;;;3.53;;
26113;SDS011;13966;48.828;9.064;2023-05-07T08:05:29;4.20;;;3.00;;
26113;SDS011;13966;48.828;9.064;2023-05-07T08:07:55;4.03;;;2.58;;
26113;SDS011;13966;48.828;9.064;2023-05-07T08:10:21;3.72;;;2.75;;
26113;SDS011;13966;48.828;9.064;2023-05-07T08:12:48;5.82;;;2.65;;
26113;SDS011;13966;48.828;9.064;2023-05-07T08:15:14;5.00;;;2.30;;
26113;SDS011;13966;48.828;9.064;2023-05-07T08:17:40;4.90;;;2.10;;
26113;SDS011;13966;48.828;9.064;2023-05-07T08:20:07;4.07;;;2.40;;
26113;SDS011;13966;48.828;9.064;2023-05-07T08:22:36;3.15;;;2.38;;
26113;SDS011;13966;48.828;9.064;2023-05-07T08:25:02;4.60;;;2.55;;
26113;SDS011;13966;48.828;9.064;2023-05-07T08:27:28;3.88;;;2.40;;
26113;SDS011;13966;48.828;9.064;2023-05-07T08:29:54;3.15;;;2.30;;
26113;SDS011;13966;48.828;9.064;2023-05-07T08:32:20;3.50;;;2.15;;
26113;SDS011;13966;48.828;9.064;2023-05-07T08:34:47;3.70;;;2.00;;
26113;SDS011;13966;48.828;9.064;2023-05-07T08:37:13;2.92;;;2.00;;
26113;SDS011;13966;48.828;9.064;2023-05-07T08:39:39;6.68;;;2.03;;
26113;SDS011;13966;48.828;9.064;2023-05-07T08:42:05;5.78;;;2.58;;
26113;SDS011;13966;48.828;9.064;2023-05-07T08:44:33;3.80;;;2.33;;
26113;SDS011;13966;48.828;9.064;2023-05-07T08:47:02;6.03;;;3.03;;
26113;SDS011;13966;48.828;9.064;2023-05-07T08:49:28;5.53;;;2.25;;
26113;SDS011;13966;48.828;9.064;2023-05-07T08:51:54;4.93;;;2.58;;
26113;SDS011;13966;48.828;9.064;2023-05-07T08:54:20;6.72;;;2.15;;
26113;SDS011;13966;48.828;9.064;2023-05-07T08:56:47;3.72;;;2.10;;
26113;SDS011;13966;48.828;9.064;2023-05-07T08:59:13;3.80;;;2.30;;
26113;SDS011;13966;48.828;9.064;2023-05-07T09:01:39;4.15;;;2.58;;
26113;SDS011;13966;48.828;9.064;2023-05-07T09:04:05;4.18;;;2.47;;
26113;SDS011;13966;48.828;9.064;2023-05-07T09:06:32;4.18;;;2.72;;
26113;SDS011;13966;48.828;9.064;2023-05-07T09:08:58;5.05;;;2.40;;
26113;SDS011;13966;48.828;9.064;2023-05-07T09:11:26;3.17;;;2.38;;
26113;SDS011;13966;48.828;9.064;2023-05-07T09:13:55;3.58;;;2.42;;
26113;SDS011;13966;48.828;9.064;2023-05-07T09:16:22;4.22;;;2.45;;
26113;SDS011;13966;48.828;9.064;2023-05-07T09:18:52;5.05;;;2.53;;
26113;SDS011;13966;48.828;9.064;2023-05-07T09:21:18;3.65;;;2.13;;
26113;SDS011;13966;48.828;9.064;2023-05-07T09:23:45;5.75;;;2.40;;
26113;SDS011;13966;48.828;9.064;2023-05-07T09:26:11;3.55;;;2.33;;
26113;SDS011;13966;48.828;9.064;2023-05-07T09:28:40;4.53;;;2.25;;
26113;SDS011;13966;48.828;9.064;2023-05-07T09:31:07;2.92;;;2.08;;
26113;SDS011;13966;48.828;9.064;2023-05-07T09:33:33;3.10;;;1.60;;
26113;SDS011;13966;48.828;9.064;2023-05-07T09:36:02;3.95;;;2.22;;
26113;SDS011;13966;48.828;9.064;2023-05-07T09:38:28;2.15;;;1.70;;
26113;SDS011;13966;48.828;9.064;2023-05-07T09:41:03;2.30;;;2.00;;
26113;SDS011;13966;48.828;9.064;2023-05-07T09:43:33;4.55;;;2.00;;
26113;SDS011;13966;48.828;9.064;2023-05-07T09:46:02;3.20;;;1.85;;
26113;SDS011;13966;48.828;9.064;2023-05-07T09:48:28;2.38;;;1.52;;
26113;SDS011;13966;48.828;9.064;2023-05-07T09:50:55;2.63;;;1.90;;
26113;SDS011;13966;48.828;9.064;2023-05-07T09:53:23;2.50;;;1.80;;
26113;SDS011;13966;48.828;9.064;2023-05-07T09:55:50;2.72;;;1.67;;
26113;SDS011;13966;48.828;9.064;2023-05-07T09:58:16;2.60;;;1.70;;
26113;SDS011;13966;48.828;9.064;2023-05-07T10:00:43;3.28;;;1.60;;
26113;SDS011;13966;48.828;9.064;2023-05-07T10:03:10;5.07;;;1.70;;
26113;SDS011;13966;48.828;9.064;2023-05-07T10:05:36;2.35;;;1.52;;
26113;SDS011;13966;48.828;9.064;2023-05-07T10:08:03;3.03;;;1.33;;
26113;SDS011;13966;48.828;9.064;2023-05-07T10:10:29;2.60;;;1.45;;
26113;SDS011;13966;48.828;9.064;2023-05-07T10:12:56;3.03;;;1.73;;
26113;SDS011;13966;48.828;9.064;2023-05-07T10:15:22;3.17;;;1.50;;
26113;SDS011;13966;48.828;9.064;2023-05-07T10:17:49;4.05;;;1.80;;
26113;SDS011;13966;48.828;9.064;2023-05-07T10:20:16;1.50;;;1.02;;
26113;SDS011;13966;48.828;9.064;2023-05-07T10:22:46;1.85;;;1.50;;
26113;SDS011;13966;48.828;9.064;2023-05-07T10:25:34;2.72;;;1.83;;
26113;SDS011;13966;48.828;9.064;2023-05-07T10:28:00;2.92;;;1.80;;
26113;SDS011;13966;48.828;9.064;2023-05-07T10:30:35;1.92;;;1.30;;
26113;SDS011;13966;48.828;9.064;2023-05-07T10:33:04;2.55;;;1.38;;
26113;SDS011;13966;48.828;9.064;2023-05-07T10:35:32;5.82;;;1.50;;
26113;SDS011;13966;48.828;9.064;2023-05-07T10:38:02;2.25;;;1.65;;
26113;SDS011;13966;48.828;9.064;2023-05-07T10:40:28;3.35;;;1.40;;
26113;SDS011;13966;48.828;9.064;2023-05-07T10:42:54;2.55;;;1.88;;
26113;SDS011;13966;48.828;9.064;2023-05-07T10:45:21;2.10;;;1.65;;
26113;SDS011;13966;48.828;9.064;2023-05-07T10:48:06;6.38;;;1.80;;
26113;SDS011;13966;48.828;9.064;2023-05-07T10:50:33;4.72;;;1.77;;
26113;SDS011;13966;48.828;9.064;2023-05-07T10:56:28;2.65;;;1.75;;
26113;SDS011;13966;48.828;9.064;2023-05-07T10:58:29;5.45;;;2.03;;
26113;SDS011;13966;48.828;9.064;2023-05-07T11:00:57;12.52;;;2.35;;
26113;SDS011;13966;48.828;9.064;2023-05-07T11:03:24;6.00;;;2.28;;
26113;SDS011;13966;48.828;9.064;2023-05-07T11:06:09;10.65;;;2.25;;
26113;SDS011;13966;48.828;9.064;2023-05-07T11:11:19;5.82;;;2.45;;
26113;SDS011;13966;48.828;9.064;2023-05-07T11:13:48;4.57;;;2.65;;
26113;SDS011;13966;48.828;9.064;2023-05-07T11:16:19;5.28;;;2.60;;
26113;SDS011;13966;48.828;9.064;2023-05-07T11:18:49;5.77;;;2.67;;
26113;SDS011;13966;48.828;9.064;2023-05-07T11:21:37;4.27;;;2.50;;
26113;SDS011;13966;48.828;9.064;2023-05-07T11:24:02;4.68;;;2.33;;
26113;SDS011;13966;48.828;9.064;2023-05-07T11:26:29;4.18;;;2.65;;
26113;SDS011;13966;48.828;9.064;2023-05-07T11:28:56;5.35;;;2.78;;
26113;SDS011;13966;48.828;9.064;2023-05-07T11:31:25;4.82;;;2.92;;
26113;SDS011;13966;48.828;9.064;2023-05-07T11:36:19;3.03;;;2.72;;
26113;SDS011;13966;48.828;9.064;2023-05-07T11:38:45;5.40;;;2.60;;
26113;SDS011;13966;48.828;9.064;2023-05-07T11:41:12;4.40;;;2.95;;
26113;SDS011;13966;48.828;9.064;2023-05-07T11:43:38;4.10;;;3.00;;
26113;SDS011;13966;48.828;9.064;2023-05-07T11:46:08;7.28;;;3.13;;
26113;SDS011;13966;48.828;9.064;2023-05-07T11:48:35;4.97;;;3.20;;
26113;SDS011;13966;48.828;9.064;2023-05-07T11:51:01;11.88;;;3.10;;
26113;SDS011;13966;48.828;9.064;2023-05-07T11:53:33;8.05;;;3.13;;
26113;SDS011;13966;48.828;9.064;2023-05-07T11:56:00;3.38;;;3.08;;
26113;SDS011;13966;48.828;9.064;2023-05-07T11:58:26;7.57;;;3.05;;
26113;SDS011;13966;48.828;9.064;2023-05-07T12:00:53;5.40;;;3.30;;
26113;SDS011;13966;48.828;9.064;2023-05-07T12:03:19;5.53;;;3.70;;
26113;SDS011;13966;48.828;9.064;2023-05-07T12:05:45;6.97;;;4.85;;
26113;SDS011;13966;48.828;9.064;2023-05-07T12:08:15;10.57;;;5.60;;
26113;SDS011;13966;48.828;9.064;2023-05-07T12:10:41;7.00;;;4.90;;
26113;SDS011;13966;48.828;9.064;2023-05-07T12:13:23;6.03;;;3.70;;
26113;SDS011;13966;48.828;9.064;2023-05-07T12:15:50;4.43;;;2.95;;
26113;SDS011;13966;48.828;9.064;2023-05-07T12:18:16;6.38;;;2.85;;
26113;SDS011;13966;48.828;9.064;2023-05-07T12:20:43;2.85;;;1.65;;
26113;SDS011;13966;48.828;9.064;2023-05-07T12:23:10;4.03;;;2.03;;
26113;SDS011;13966;48.828;9.064;2023-05-07T12:25:39;3.22;;;1.60;;
26113;SDS011;13966;48.828;9.064;2023-05-07T12:28:08;4.72;;;1.42;;
26113;SDS011;13966;48.828;9.064;2023-05-07T12:30:38;2.92;;;1.40;;
26113;SDS011;13966;48.828;9.064;2023-05-07T12:33:04;5.03;;;1.38;;
26113;SDS011;13966;48.828;9.064;2023-05-07T12:35:31;6.57;;;1.60;;
26113;SDS011;13966;48.828;9.064;2023-05-07T12:37:57;3.35;;;1.70;;
26113;SDS011;13966;48.828;9.064;2023-05-07T12:40:24;4.03;;;1.83;;
26113;SDS011;13966;48.828;9.064;2023-05-07T12:42:52;9.20;;;1.90;;
26113;SDS011;13966;48.828;9.064;2023-05-07T12:45:20;5.35;;;1.95;;
26113;SDS011;13966;48.828;9.064;2023-05-07T12:47:46;8.30;;;1.88;;
26113;SDS011;13966;48.828;9.064;2023-05-07T12:50:13;5.65;;;1.83;;
26113;SDS011;13966;48.828;9.064;2023-05-07T12:52:39;5.95;;;2.13;;
26113;SDS011;13966;48.828;9.064;2023-05-07T12:55:08;7.15;;;2.03;;
26113;SDS011;13966;48.828;9.064;2023-05-07T12:57:38;3.55;;;1.83;;
26113;SDS011;13966;48.828;9.064;2023-05-07T13:00:05;5.07;;;2.15;;
26113;SDS011;13966;48.828;9.064;2023-05-07T13:02:34;4.38;;;2.25;;
26113;SDS011;13966;48.828;9.064;2023-05-07T13:05:03;4.20;;;1.98;;
26113;SDS011;13966;48.828;9.064;2023-05-07T13:07:29;2.95;;;1.80;;
26113;SDS011;13966;48.828;9.064;2023-05-07T13:09:55;3.55;;;2.38;;
26113;SDS011;13966;48.828;9.064;2023-05-07T13:12:21;2.78;;;2.20;;
26113;SDS011;13966;48.828;9.064;2023-05-07T13:14:48;9.73;;;3.05;;
26113;SDS011;13966;48.828;9.064;2023-05-07T13:17:14;5.22;;;2.65;;
26113;SDS011;13966;48.828;9.064;2023-05-07T13:19:40;4.57;;;2.13;;
26113;SDS011;13966;48.828;9.064;2023-05-07T13:22:06;5.22;;;2.20;;
26113;SDS011;13966;48.828;9.064;2023-05-07T13:24:32;4.47;;;2.08;;
26113;SDS011;13966;48.828;9.064;2023-05-07T13:26:58;4.60;;;2.05;;
26113;SDS011;13966;48.828;9.064;2023-05-07T13:29:23;2.85;;;1.60;;
26113;SDS011;13966;48.828;9.064;2023-05-07T13:31:53;6.63;;;1.65;;
26113;SDS011;13966;48.828;9.064;2023-05-07T13:34:20;6.78;;;2.10;;
26113;SDS011;13966;48.828;9.064;2023-05-07T13:36:46;7.15;;;1.55;;
26113;SDS011;13966;48.828;9.064;2023-05-07T13:39:12;3.83;;;1.73;;
26113;SDS011;13966;48.828;9.064;2023-05-07T13:41:38;4.20;;;1.50;;
26113;SDS011;13966;48.828;9.064;2023-05-07T13:44:04;5.03;;;1.27;;
26113;SDS011;13966;48.828;9.064;2023-05-07T13:46:30;5.82;;;1.60;;
26113;SDS011;13966;48.828;9.064;2023-05-07T13:48:56;2.72;;;1.40;;
26113;SDS011;13966;48.828;9.064;2023-05-07T13:51:22;5.22;;;1.63;;
26113;SDS011;13966;48.828;9.064;2023-05-07T13:53:48;2.95;;;1.20;;
26113;SDS011;13966;48.828;9.064;2023-05-07T13:56:14;2.88;;;1.20;;
26113;SDS011;13966;48.828;9.064;2023-05-07T13:58:40;2.78;;;1.48;;
26113;SDS011;13966;48.828;9.064;2023-05-07T14:01:06;4.85;;;1.40;;
26113;SDS011;13966;48.828;9.064;2023-05-07T14:03:32;3.63;;;1.13;;
26113;SDS011;13966;48.828;9.064;2023-05-07T14:05:59;6.00;;;1.85;;
26113;SDS011;13966;48.828;9.064;2023-05-07T14:08:26;5.20;;;1.30;;
26113;SDS011;13966;48.828;9.064;2023-05-07T14:10:52;2.40;;;1.60;;
26113;SDS011;13966;48.828;9.064;2023-05-07T14:13:18;3.53;;;1.83;;
26113;SDS011;13966;48.828;9.064;2023-05-07T14:15:44;3.05;;;1.83;;
26113;SDS011;13966;48.828;9.064;2023-05-07T14:18:15;2.67;;;1.75;;
26113;SDS011;13966;48.828;9.064;2023-05-07T14:20:41;4.07;;;2.10;;
26113;SDS011;13966;48.828;9.064;2023-05-07T14:23:12;3.97;;;2.20;;
26113;SDS011;13966;48.828;9.064;2023-05-07T14:25:39;4.55;;;2.15;;
26113;SDS011;13966;48.828;9.064;2023-05-07T14:28:05;4.63;;;2.65;;
26113;SDS011;13966;48.828;9.064;2023-05-07T14:30:31;6.18;;;2.45;;
26113;SDS011;13966;48.828;9.064;2023-05-07T14:32:56;2.72;;;2.30;;
26113;SDS011;13966;48.828;9.064;2023-05-07T14:35:23;3.25;;;2.20;;
26113;SDS011;13966;48.828;9.064;2023-05-07T14:37:49;4.53;;;2.60;;
26113;SDS011;13966;48.828;9.064;2023-05-07T14:40:15;8.15;;;2.70;;
26113;SDS011;13966;48.828;9.064;2023-05-07T14:42:41;7.03;;;2.47;;
26113;SDS011;13966;48.828;9.064;2023-05-07T14:45:07;5.63;;;2.88;;
26113;SDS011;13966;48.828;9.064;2023-05-07T14:47:33;10.23;;;2.95;;
26113;SDS011;13966;48.828;9.064;2023-05-07T14:49:59;3.88;;;2.55;;
26113;SDS011;13966;48.828;9.064;2023-05-07T14:52:26;4.32;;;2.50;;